sensor_id;sensor_type;location;lat;lon;timestamp;temperature;humidity
47368;DHT22;34646;47.964;7.982;2022-10-16T00:00:55;19.60;76.30
47368;DHT22;34646;47.964;7.982;2022-10-16T00:06:56;19.60;76.20
47368;DHT22;34646;47.964;7.982;2022-10-16T00:12:56;19.50;76.20
47368;DHT22;34646;47.964;7.982;2022-10-16T00:18:58;19.60;76.20
47368;DHT22;34646;47.964;7.982;2022-10-16T00:24:58;19.60;76.20
47368;DHT22;34646;47.964;7.982;2022-10-16T00:31:03;19.50;76.10
47368;DHT22;34646;47.964;7.982;2022-10-16T00:37:03;19.50;76.20
47368;DHT22;34646;47.964;7.982;2022-10-16T00:49:32;19.50;76.10
47368;DHT22;34646;47.964;7.982;2022-10-16T00:55:33;19.50;76.10
47368;DHT22;34646;47.964;7.982;2022-10-16T01:01:34;19.50;76.00
47368;DHT22;34646;47.964;7.982;2022-10-16T01:07:45;19.50;76.00
47368;DHT22;34646;47.964;7.982;2022-10-16T01:13:54;19.50;76.00
47368;DHT22;34646;47.964;7.982;2022-10-16T01:20:30;19.50;76.00
47368;DHT22;34646;47.964;7.982;2022-10-16T01:33:16;19.50;76.00
47368;DHT22;34646;47.964;7.982;2022-10-16T01:39:22;19.50;76.00
47368;DHT22;34646;47.964;7.982;2022-10-16T01:45:24;19.50;76.00
47368;DHT22;34646;47.964;7.982;2022-10-16T01:51:26;19.50;76.00
47368;DHT22;34646;47.964;7.982;2022-10-16T01:57:28;19.50;76.00
47368;DHT22;34646;47.964;7.982;2022-10-16T02:03:31;19.50;76.00
47368;DHT22;34646;47.964;7.982;2022-10-16T02:09:33;19.50;76.00
47368;DHT22;34646;47.964;7.982;2022-10-16T02:15:35;19.50;76.00
47368;DHT22;34646;47.964;7.982;2022-10-16T02:28:07;19.40;75.90
47368;DHT22;34646;47.964;7.982;2022-10-16T02:34:11;19.40;75.90
47368;DHT22;34646;47.964;7.982;2022-10-16T02:40:12;19.50;75.90
47368;DHT22;34646;47.964;7.982;2022-10-16T02:46:13;19.40;75.90
47368;DHT22;34646;47.964;7.982;2022-10-16T02:52:14;19.40;75.90
47368;DHT22;34646;47.964;7.982;2022-10-16T02:58:15;19.40;75.90
47368;DHT22;34646;47.964;7.982;2022-10-16T03:04:16;19.40;75.80
47368;DHT22;34646;47.964;7.982;2022-10-16T03:10:16;19.40;75.90
47368;DHT22;34646;47.964;7.982;2022-10-16T03:16:17;19.40;75.80
47368;DHT22;34646;47.964;7.982;2022-10-16T03:22:18;19.40;75.80
47368;DHT22;34646;47.964;7.982;2022-10-16T03:28:18;19.40;75.80
47368;DHT22;34646;47.964;7.982;2022-10-16T03:34:19;19.40;75.80
47368;DHT22;34646;47.964;7.982;2022-10-16T03:40:20;19.40;75.80
47368;DHT22;34646;47.964;7.982;2022-10-16T03:46:20;19.40;75.80
47368;DHT22;34646;47.964;7.982;2022-10-16T03:52:21;19.40;75.80
47368;DHT22;34646;47.964;7.982;2022-10-16T03:58:22;19.40;75.80
47368;DHT22;34646;47.964;7.982;2022-10-16T04:04:22;19.40;75.70
47368;DHT22;34646;47.964;7.982;2022-10-16T04:10:23;19.40;75.80
47368;DHT22;34646;47.964;7.982;2022-10-16T04:16:24;19.40;75.80
47368;DHT22;34646;47.964;7.982;2022-10-16T04:22:24;19.40;75.80
47368;DHT22;34646;47.964;7.982;2022-10-16T04:28:25;19.30;75.70
47368;DHT22;34646;47.964;7.982;2022-10-16T04:34:26;19.30;75.70
47368;DHT22;34646;47.964;7.982;2022-10-16T04:40:27;19.30;75.70
47368;DHT22;34646;47.964;7.982;2022-10-16T04:46:27;19.30;75.70
47368;DHT22;34646;47.964;7.982;2022-10-16T04:52:28;19.30;75.70
47368;DHT22;34646;47.964;7.982;2022-10-16T04:58:29;19.30;75.70
47368;DHT22;34646;47.964;7.982;2022-10-16T05:04:29;19.30;75.70
47368;DHT22;34646;47.964;7.982;2022-10-16T05:10:30;19.30;75.70
47368;DHT22;34646;47.964;7.982;2022-10-16T05:16:31;19.30;75.70
47368;DHT22;34646;47.964;7.982;2022-10-16T05:22:31;19.30;75.70
47368;DHT22;34646;47.964;7.982;2022-10-16T05:28:32;19.30;75.70
47368;DHT22;34646;47.964;7.982;2022-10-16T05:34:33;19.30;75.70
47368;DHT22;34646;47.964;7.982;2022-10-16T05:40:33;19.30;75.70
47368;DHT22;34646;47.964;7.982;2022-10-16T05:46:34;19.30;75.70
47368;DHT22;34646;47.964;7.982;2022-10-16T05:52:35;19.30;75.70
47368;DHT22;34646;47.964;7.982;2022-10-16T05:58:37;19.30;75.70
47368;DHT22;34646;47.964;7.982;2022-10-16T06:04:38;19.30;75.70
47368;DHT22;34646;47.964;7.982;2022-10-16T06:10:38;19.30;75.70
47368;DHT22;34646;47.964;7.982;2022-10-16T06:16:39;19.30;75.70
47368;DHT22;34646;47.964;7.982;2022-10-16T06:22:39;19.20;75.60
47368;DHT22;34646;47.964;7.982;2022-10-16T06:28:40;19.30;75.60
47368;DHT22;34646;47.964;7.982;2022-10-16T06:34:41;19.30;75.70
47368;DHT22;34646;47.964;7.982;2022-10-16T06:40:42;19.30;75.70
47368;DHT22;34646;47.964;7.982;2022-10-16T06:46:43;19.30;75.70
47368;DHT22;34646;47.964;7.982;2022-10-16T06:52:44;19.30;75.80
47368;DHT22;34646;47.964;7.982;2022-10-16T06:58:45;19.30;75.80
47368;DHT22;34646;47.964;7.982;2022-10-16T07:04:46;19.30;75.80
47368;DHT22;34646;47.964;7.982;2022-10-16T07:10:47;19.30;75.80
47368;DHT22;34646;47.964;7.982;2022-10-16T07:16:48;19.30;75.80
47368;DHT22;34646;47.964;7.982;2022-10-16T07:22:48;19.30;75.80
47368;DHT22;34646;47.964;7.982;2022-10-16T07:28:50;19.30;75.90
47368;DHT22;34646;47.964;7.982;2022-10-16T07:34:51;19.30;75.90
47368;DHT22;34646;47.964;7.982;2022-10-16T07:41:03;19.30;75.90
47368;DHT22;34646;47.964;7.982;2022-10-16T07:47:04;19.30;75.90
47368;DHT22;34646;47.964;7.982;2022-10-16T07:53:05;19.40;76.00
47368;DHT22;34646;47.964;7.982;2022-10-16T07:59:06;19.30;76.00
47368;DHT22;34646;47.964;7.982;2022-10-16T08:05:07;19.30;76.00
47368;DHT22;34646;47.964;7.982;2022-10-16T08:11:08;19.30;76.00
47368;DHT22;34646;47.964;7.982;2022-10-16T08:17:09;19.30;76.00
47368;DHT22;34646;47.964;7.982;2022-10-16T08:23:12;19.30;76.00
47368;DHT22;34646;47.964;7.982;2022-10-16T08:29:14;19.30;76.00
47368;DHT22;34646;47.964;7.982;2022-10-16T08:35:15;19.30;76.10
47368;DHT22;34646;47.964;7.982;2022-10-16T08:41:53;19.30;76.60
47368;DHT22;34646;47.964;7.982;2022-10-16T08:48:17;19.30;75.90
47368;DHT22;34646;47.964;7.982;2022-10-16T08:54:38;19.30;75.80
47368;DHT22;34646;47.964;7.982;2022-10-16T09:00:45;19.40;75.90
47368;DHT22;34646;47.964;7.982;2022-10-16T09:13:14;19.40;75.90
47368;DHT22;34646;47.964;7.982;2022-10-16T09:19:22;19.40;75.90
47368;DHT22;34646;47.964;7.982;2022-10-16T09:25:25;19.40;75.80
47368;DHT22;34646;47.964;7.982;2022-10-16T09:31:26;19.40;75.80
47368;DHT22;34646;47.964;7.982;2022-10-16T09:37:26;19.40;75.80
47368;DHT22;34646;47.964;7.982;2022-10-16T09:50:00;19.50;75.90
47368;DHT22;34646;47.964;7.982;2022-10-16T09:56:02;19.50;76.10
47368;DHT22;34646;47.964;7.982;2022-10-16T10:02:14;19.50;76.20
47368;DHT22;34646;47.964;7.982;2022-10-16T10:08:18;19.50;76.30
47368;DHT22;34646;47.964;7.982;2022-10-16T10:14:23;19.50;76.30
47368;DHT22;34646;47.964;7.982;2022-10-16T10:20:25;19.50;76.30
47368;DHT22;34646;47.964;7.982;2022-10-16T10:26:29;19.50;76.20
47368;DHT22;34646;47.964;7.982;2022-10-16T10:45:26;19.50;76.10
47368;DHT22;34646;47.964;7.982;2022-10-16T11:10:57;19.60;76.00
47368;DHT22;34646;47.964;7.982;2022-10-16T11:23:44;19.60;75.90
47368;DHT22;34646;47.964;7.982;2022-10-16T11:29:56;19.60;76.50
47368;DHT22;34646;47.964;7.982;2022-10-16T11:36:04;19.60;75.80
47368;DHT22;34646;47.964;7.982;2022-10-16T11:42:30;19.60;75.80
47368;DHT22;34646;47.964;7.982;2022-10-16T11:48:36;19.60;75.70
47368;DHT22;34646;47.964;7.982;2022-10-16T11:54:47;19.70;75.80
47368;DHT22;34646;47.964;7.982;2022-10-16T12:07:13;19.70;75.70
47368;DHT22;34646;47.964;7.982;2022-10-16T12:13:38;19.70;75.70
47368;DHT22;34646;47.964;7.982;2022-10-16T12:19:39;19.70;75.50
47368;DHT22;34646;47.964;7.982;2022-10-16T12:25:40;19.80;75.50
47368;DHT22;34646;47.964;7.982;2022-10-16T12:31:48;19.90;71.20
47368;DHT22;34646;47.964;7.982;2022-10-16T12:37:49;19.90;71.30
47368;DHT22;34646;47.964;7.982;2022-10-16T12:43:51;19.90;71.20
47368;DHT22;34646;47.964;7.982;2022-10-16T12:49:54;19.90;70.70
47368;DHT22;34646;47.964;7.982;2022-10-16T13:08:42;20.00;68.50
47368;DHT22;34646;47.964;7.982;2022-10-16T13:27:40;20.30;66.90
47368;DHT22;34646;47.964;7.982;2022-10-16T13:33:47;20.40;67.60
47368;DHT22;34646;47.964;7.982;2022-10-16T13:39:51;20.40;67.60
47368;DHT22;34646;47.964;7.982;2022-10-16T13:46:01;20.60;67.10
47368;DHT22;34646;47.964;7.982;2022-10-16T13:52:03;20.60;67.20
47368;DHT22;34646;47.964;7.982;2022-10-16T13:58:14;20.70;66.70
47368;DHT22;34646;47.964;7.982;2022-10-16T14:04:15;20.60;67.40
47368;DHT22;34646;47.964;7.982;2022-10-16T14:10:23;20.60;68.30
47368;DHT22;34646;47.964;7.982;2022-10-16T14:16:28;20.60;68.80
47368;DHT22;34646;47.964;7.982;2022-10-16T14:28:32;20.70;69.50
47368;DHT22;34646;47.964;7.982;2022-10-16T14:34:35;20.70;69.80
47368;DHT22;34646;47.964;7.982;2022-10-16T14:40:37;20.80;70.10
47368;DHT22;34646;47.964;7.982;2022-10-16T14:46:40;20.70;70.30
47368;DHT22;34646;47.964;7.982;2022-10-16T14:52:41;20.70;70.60
47368;DHT22;34646;47.964;7.982;2022-10-16T14:58:43;20.80;70.80
47368;DHT22;34646;47.964;7.982;2022-10-16T15:04:44;20.80;70.90
47368;DHT22;34646;47.964;7.982;2022-10-16T15:10:45;20.80;71.00
47368;DHT22;34646;47.964;7.982;2022-10-16T15:16:46;20.80;71.10
47368;DHT22;34646;47.964;7.982;2022-10-16T15:22:46;20.70;71.20
47368;DHT22;34646;47.964;7.982;2022-10-16T15:28:47;20.70;71.30
47368;DHT22;34646;47.964;7.982;2022-10-16T15:34:48;20.70;71.50
47368;DHT22;34646;47.964;7.982;2022-10-16T15:40:49;20.60;71.50
47368;DHT22;34646;47.964;7.982;2022-10-16T15:46:50;20.60;71.70
47368;DHT22;34646;47.964;7.982;2022-10-16T15:52:51;20.50;71.70
47368;DHT22;34646;47.964;7.982;2022-10-16T15:58:52;20.50;71.80
47368;DHT22;34646;47.964;7.982;2022-10-16T16:04:54;20.50;71.90
47368;DHT22;34646;47.964;7.982;2022-10-16T16:11:06;20.40;71.90
47368;DHT22;34646;47.964;7.982;2022-10-16T16:17:06;20.40;72.00
47368;DHT22;34646;47.964;7.982;2022-10-16T16:23:07;20.40;72.20
47368;DHT22;34646;47.964;7.982;2022-10-16T16:29:12;20.40;73.40
47368;DHT22;34646;47.964;7.982;2022-10-16T16:35:13;20.30;73.80
47368;DHT22;34646;47.964;7.982;2022-10-16T16:41:16;20.30;73.80
47368;DHT22;34646;47.964;7.982;2022-10-16T16:47:17;20.30;73.90
47368;DHT22;34646;47.964;7.982;2022-10-16T16:53:17;20.30;74.30
47368;DHT22;34646;47.964;7.982;2022-10-16T16:59:20;20.30;73.50
47368;DHT22;34646;47.964;7.982;2022-10-16T17:05:22;20.30;73.50
47368;DHT22;34646;47.964;7.982;2022-10-16T17:11:24;20.20;73.40
47368;DHT22;34646;47.964;7.982;2022-10-16T17:17:26;20.30;73.50
47368;DHT22;34646;47.964;7.982;2022-10-16T17:23:27;20.30;73.60
47368;DHT22;34646;47.964;7.982;2022-10-16T17:29:28;20.30;73.70
47368;DHT22;34646;47.964;7.982;2022-10-16T17:35:28;20.30;73.70
47368;DHT22;34646;47.964;7.982;2022-10-16T17:41:29;20.30;73.80
47368;DHT22;34646;47.964;7.982;2022-10-16T17:47:30;20.20;73.80
47368;DHT22;34646;47.964;7.982;2022-10-16T17:53:31;20.20;73.90
47368;DHT22;34646;47.964;7.982;2022-10-16T17:59:31;20.20;74.00
47368;DHT22;34646;47.964;7.982;2022-10-16T18:05:37;20.20;74.00
47368;DHT22;34646;47.964;7.982;2022-10-16T18:11:37;20.10;74.00
47368;DHT22;34646;47.964;7.982;2022-10-16T18:17:38;20.10;74.00
47368;DHT22;34646;47.964;7.982;2022-10-16T18:23:39;20.10;74.10
47368;DHT22;34646;47.964;7.982;2022-10-16T18:29:40;20.10;74.60
47368;DHT22;34646;47.964;7.982;2022-10-16T18:35:41;20.10;74.90
47368;DHT22;34646;47.964;7.982;2022-10-16T18:41:42;20.10;75.00
47368;DHT22;34646;47.964;7.982;2022-10-16T18:47:46;20.10;75.20
47368;DHT22;34646;47.964;7.982;2022-10-16T18:53:50;20.10;75.30
47368;DHT22;34646;47.964;7.982;2022-10-16T18:59:50;20.10;75.30
47368;DHT22;34646;47.964;7.982;2022-10-16T19:05:51;20.10;75.50
47368;DHT22;34646;47.964;7.982;2022-10-16T19:11:52;20.10;75.40
47368;DHT22;34646;47.964;7.982;2022-10-16T19:17:53;20.00;75.60
47368;DHT22;34646;47.964;7.982;2022-10-16T19:23:56;20.10;75.80
47368;DHT22;34646;47.964;7.982;2022-10-16T19:29:57;20.10;75.70
47368;DHT22;34646;47.964;7.982;2022-10-16T19:36:16;20.00;75.90
47368;DHT22;34646;47.964;7.982;2022-10-16T19:42:17;20.10;75.90
47368;DHT22;34646;47.964;7.982;2022-10-16T19:48:18;20.10;75.90
47368;DHT22;34646;47.964;7.982;2022-10-16T19:54:19;20.10;76.10
47368;DHT22;34646;47.964;7.982;2022-10-16T20:00:19;20.10;76.10
47368;DHT22;34646;47.964;7.982;2022-10-16T20:06:20;20.10;76.00
47368;DHT22;34646;47.964;7.982;2022-10-16T20:12:21;20.10;76.10
47368;DHT22;34646;47.964;7.982;2022-10-16T20:18:22;20.10;75.80
47368;DHT22;34646;47.964;7.982;2022-10-16T20:24:23;20.10;75.60
47368;DHT22;34646;47.964;7.982;2022-10-16T20:30:23;20.10;75.50
47368;DHT22;34646;47.964;7.982;2022-10-16T20:36:25;20.00;75.40
47368;DHT22;34646;47.964;7.982;2022-10-16T20:42:26;20.00;75.30
47368;DHT22;34646;47.964;7.982;2022-10-16T20:48:26;20.00;75.80
47368;DHT22;34646;47.964;7.982;2022-10-16T20:54:27;20.00;75.20
47368;DHT22;34646;47.964;7.982;2022-10-16T21:00:28;20.00;75.20
47368;DHT22;34646;47.964;7.982;2022-10-16T21:06:31;20.00;75.10
47368;DHT22;34646;47.964;7.982;2022-10-16T21:12:32;20.00;75.10
47368;DHT22;34646;47.964;7.982;2022-10-16T21:18:33;20.00;75.10
47368;DHT22;34646;47.964;7.982;2022-10-16T21:24:35;20.00;75.10
47368;DHT22;34646;47.964;7.982;2022-10-16T21:30:39;20.00;75.10
47368;DHT22;34646;47.964;7.982;2022-10-16T21:36:41;20.00;75.10
47368;DHT22;34646;47.964;7.982;2022-10-16T21:42:42;20.00;75.10
47368;DHT22;34646;47.964;7.982;2022-10-16T21:48:43;20.00;75.10
47368;DHT22;34646;47.964;7.982;2022-10-16T21:54:44;19.90;75.00
47368;DHT22;34646;47.964;7.982;2022-10-16T22:00:44;20.00;75.00
47368;DHT22;34646;47.964;7.982;2022-10-16T22:06:45;19.90;75.00
47368;DHT22;34646;47.964;7.982;2022-10-16T22:12:46;19.90;75.00
47368;DHT22;34646;47.964;7.982;2022-10-16T22:18:47;19.90;75.00
47368;DHT22;34646;47.964;7.982;2022-10-16T22:24:47;19.90;75.00
47368;DHT22;34646;47.964;7.982;2022-10-16T22:30:48;19.90;74.90
47368;DHT22;34646;47.964;7.982;2022-10-16T22:36:49;19.90;75.00
47368;DHT22;34646;47.964;7.982;2022-10-16T22:42:50;19.90;75.00
47368;DHT22;34646;47.964;7.982;2022-10-16T22:48:51;19.90;75.00
47368;DHT22;34646;47.964;7.982;2022-10-16T22:54:52;19.90;75.50
47368;DHT22;34646;47.964;7.982;2022-10-16T23:00:52;19.90;75.00
47368;DHT22;34646;47.964;7.982;2022-10-16T23:06:53;19.90;75.00
47368;DHT22;34646;47.964;7.982;2022-10-16T23:12:54;19.80;74.90
47368;DHT22;34646;47.964;7.982;2022-10-16T23:18:55;19.80;74.90
47368;DHT22;34646;47.964;7.982;2022-10-16T23:24:55;19.80;74.90
47368;DHT22;34646;47.964;7.982;2022-10-16T23:30:56;19.80;75.00
47368;DHT22;34646;47.964;7.982;2022-10-16T23:36:57;19.80;74.90
47368;DHT22;34646;47.964;7.982;2022-10-16T23:42:57;19.80;75.00
47368;DHT22;34646;47.964;7.982;2022-10-16T23:48:58;19.80;75.50
47368;DHT22;34646;47.964;7.982;2022-10-16T23:54:59;19.80;74.90
